Flight Track Log - Related Links

Times and Time Zones

All times are in EDT time to prevent confusion due to time zone crossing. See the RHC9965 flight status page for this flight to view local times or setup timezone preferences in your user account.

Time Position Orientation Groundspeed Altitude Reporting Facility
EDT Latitude Longitude Course Direction KTS MPH feet Rate Location/Type
Wed 11:15:00 PM 24.5514 103.4884 137° Southeast  Level Estimated
Wed 11:16:00 PM 24.4824 103.5579 137° Southeast  Level Estimated
Wed 11:17:00 PM 24.4134 103.6274 137° Southeast  Level Estimated
Wed 11:18:00 PM 24.3444 103.6968 138° Southeast  Level Estimated
Wed 11:19:00 PM 24.2753 103.7661 138° Southeast  Level Estimated
Wed 11:20:00 PM 24.2062 103.8354 138° Southeast  Level Estimated
Wed 11:21:00 PM 24.1371 103.9046 138° Southeast  Level Estimated
Wed 11:22:00 PM 24.0679 103.9737 138° Southeast  Level Estimated
Wed 11:23:00 PM 23.9987 104.0427 138° Southeast  Level Estimated
Wed 11:24:00 PM 23.9295 104.1116 138° Southeast  Level Estimated
Wed 11:25:00 PM 23.8603 104.1805 138° Southeast  Level Estimated
Wed 11:26:00 PM 23.7910 104.2493 138° Southeast  Level Estimated
Wed 11:27:00 PM 23.7217 104.3181 138° Southeast  Level Estimated
Wed 11:28:00 PM 23.6523 104.3867 138° Southeast  Level Estimated
Wed 11:29:00 PM 23.5830 104.4553 138° Southeast  Level Estimated
Wed 11:30:00 PM 23.5136 104.5238 138° Southeast  Level Estimated
Wed 11:31:00 PM 23.4441 104.5923 138° Southeast  Level Estimated
Wed 11:32:00 PM 23.3747 104.6606 138° Southeast  Level Estimated
Wed 11:33:00 PM 23.3052 104.7289 138° Southeast  Level Estimated
Wed 11:34:00 PM 23.2357 104.7972 138° Southeast  Level Estimated
Wed 11:35:00 PM 23.1661 104.8653 138° Southeast  Level Estimated
Wed 11:36:00 PM 23.0965 104.9334 138° Southeast  Level Estimated
Wed 11:37:00 PM 23.0269 105.0014 138° Southeast  Level Estimated
Wed 11:38:00 PM 22.9573 105.0694 138° Southeast  Level Estimated
Wed 11:39:00 PM 22.8876 105.1372 138° Southeast  Level Estimated
Wed 11:40:00 PM 22.8179 105.2050 138° Southeast  Level Estimated
Wed 11:41:00 PM 22.7482 105.2728 138° Southeast  Level Estimated
Wed 11:42:00 PM 22.6784 105.3404 138° Southeast  Level Estimated
Wed 11:43:00 PM 22.6087 105.4080 138° Southeast  Level Estimated
Wed 11:44:00 PM 22.5389 105.4756 138° Southeast  Level Estimated
Wed 11:45:00 PM 22.4690 105.5430 138° Southeast  Level Estimated
Wed 11:46:00 PM 22.3992 105.6104 138° Southeast  Level Estimated
Wed 11:47:00 PM 22.3293 105.6777 138° Southeast  Level Estimated
Wed 11:48:00 PM 22.2593 105.7450 138° Southeast  Level Estimated
Wed 11:49:00 PM 22.1894 105.8122 138° Southeast  Level Estimated
Wed 11:50:00 PM 22.1194 105.8793 138° Southeast  Level Estimated
Wed 11:51:00 PM 22.0494 105.9464 138° Southeast  Level Estimated
Wed 11:52:00 PM 21.9794 106.0134 138° Southeast  Level Estimated
Wed 11:53:00 PM 21.9093 106.0803 138° Southeast  Level Estimated
Wed 11:54:00 PM 21.8393 106.1471 138° Southeast  Level Estimated
Wed 11:55:00 PM 21.7691 106.2139 138° Southeast  Level Estimated
Wed 11:56:00 PM 21.6990 106.2807 139° Southeast  Level Estimated
Wed 11:57:00 PM 21.6288 106.3473 139° Southeast  Level Estimated
Wed 11:58:00 PM 21.5586 106.4139 139° Southeast  Level Estimated
Wed 11:59:00 PM 21.4884 106.4805 139° Southeast  Level Estimated
Thu 12:00:00 AM 21.4182 106.5469 139° Southeast  Level Estimated
Thu 12:01:00 AM 21.3479 106.6133 139° Southeast  Level Estimated
Thu 12:02:00 AM 21.2776 106.6797 139° Southeast  Level Estimated
Thu 12:03:00 AM 21.2073 106.7459 139° Southeast  Level Estimated
Thu 12:04:00 AM 21.1369 106.8122 139° Southeast  Level Estimated
Thu 12:05:00 AM 21.0666 106.8783 139° Southeast  Level Estimated
Thu 12:06:00 AM 20.9962 106.9444 139° Southeast  Level Estimated
Thu 12:07:00 AM 20.9258 107.0104 139° Southeast  Level Estimated
Thu 12:08:00 AM 20.8553 107.0764 139° Southeast  Level Estimated
Thu 12:09:00 AM 20.7848 107.1423 139° Southeast  Level Estimated
Thu 12:10:00 AM 20.7143 107.2082 139° Southeast  Level Estimated
Thu 12:11:00 AM 20.6438 107.2739 139° Southeast  Level Estimated
Thu 12:12:00 AM 20.5732 107.3397 139° Southeast  Level Estimated
Thu 12:13:00 AM 20.5027 107.4053 139° Southeast  Level Estimated
Thu 12:14:00 AM 20.4321 107.4709 139° Southeast  Level Estimated
Thu 12:15:00 AM 20.3615 107.5365 139° Southeast  Level Estimated
Thu 12:16:00 AM 20.2908 107.6019 139° Southeast  Level Estimated
Thu 12:17:00 AM 20.2201 107.6674 139° Southeast  Level Estimated
Thu 12:18:00 AM 20.1494 107.7327 139° Southeast  Level Estimated
Thu 12:19:00 AM 20.0787 107.7980 139° Southeast  Level Estimated
Thu 12:20:00 AM 20.0080 107.8633 139° Southeast  Level Estimated
Thu 12:21:00 AM 19.9372 107.9284 139° Southeast  Level Estimated
Thu 12:22:00 AM 19.8664 107.9936 139° Southeast  Level Estimated
Thu 12:23:00 AM 19.7956 108.0586 139° Southeast  Level Estimated
Thu 12:24:00 AM 19.7247 108.1236 139° Southeast  Level Estimated
Thu 12:25:00 AM 19.6539 108.1886 139° Southeast  Level Estimated
Thu 12:26:00 AM 19.5830 108.2535 139° Southeast  Level Estimated
Thu 12:27:00 AM 19.5121 108.3183 139° Southeast  Level Estimated
Thu 12:28:00 AM 19.4412 108.3831 139° Southeast  Level Estimated
Thu 12:29:00 AM 19.3702 108.4478 139° Southeast  Level Estimated
Thu 12:30:00 AM 19.2992 108.5125 139° Southeast  Level Estimated
Thu 12:31:00 AM 19.2282 108.5771 139° Southeast  Level Estimated
Thu 12:32:00 AM 19.1572 108.6416 139° Southeast  Level Estimated
Thu 12:33:00 AM 19.0861 108.7061 139° Southeast  Level Estimated
Thu 12:34:00 AM 19.0151 108.7706 139° Southeast  Level Estimated
Thu 12:35:00 AM 18.9440 108.8350 139° Southeast  Level Estimated
Thu 12:36:00 AM 18.8729 108.8993 139° Southeast  Level Estimated
Thu 12:37:00 AM 18.8017 108.9636 139° Southeast  Level Estimated
Thu 12:38:00 AM 18.7306 109.0278 139° Southeast  Level Estimated
Thu 12:39:00 AM 18.6594 109.0920 139° Southeast  Level Estimated
Thu 12:40:00 AM 18.5882 109.1561 140° Southeast  Level Estimated
Thu 12:41:00 AM 18.5170 109.2202 140° Southeast  Level Estimated
Thu 12:42:00 AM 18.4457 109.2842 140° Southeast  Level Estimated
Thu 12:43:00 AM 18.3745 109.3481 140° Southeast  Level Estimated
Thu 12:44:00 AM 18.3032 109.4120 140° Southeast  Level Estimated
Thu 12:45:00 AM 18.3029 109.4123 139° Southeast  Level Estimated
Thu 12:46:00 AM 18.3029 109.4123 148° Southeast  Level Estimated
Thu 12:47:00 AM 18.3029 109.4123 148° Southeast  Level Estimated
Thu 12:48:00 AM 18.3029 109.4123 148° Southeast  Level Estimated
Thu 12:49:00 AM 18.3029 109.4123 148° Southeast  Level Estimated
Thu 12:50:00 AM 18.3029 109.4123 148° Southeast  Level Estimated
Thu 12:51:00 AM 18.3029 109.4123 148° Southeast  Level Estimated
Thu 12:52:00 AM 18.3029 109.4123 148° Southeast  Level Estimated
Thu 12:53:00 AM 18.3029 109.4123 148° Southeast  Level Estimated
Thu 12:54:00 AM 18.3029 109.4123 148° Southeast  Level Estimated
Thu 12:55:00 AM 18.3029 109.4123 148° Southeast  Level Estimated
Thu 12:56:00 AM 18.3029 109.4123 148° Southeast  Level Estimated
Thu 12:57:00 AM 18.3029 109.4123 148° Southeast  Level Estimated
Thu 12:58:00 AM 18.3029 109.4123 148° Southeast  Level Estimated

Login

Don't have an account? Register now (free) for customized features, flight alerts, and more!